Airport Name : Araxa

Other Name : Araxa

ICAO : SBAX

IATA : AAX

FAA :

Latitude : -19.563247

Longitude : -46.960358

Country : Brazil

Local Date and Time : 18 Jul 2024 13:23

 

TAF (Terminal Aerodrome Forecast)

 

METAR (METeorological Aerodrome Report)

SBAX 181600Z 10006KT CAVOK 25/08 Q1024

SBAX 181500Z 02005KT CAVOK 25/09 Q1025

SBAX 181400Z 05006KT CAVOK 24/09 Q1026

SBAX 181300Z 07006KT CAVOK 22/09 Q1026